Andover, Ohio
Current Conditions -  °F | °C
As of 8:34 PM on Thursday 27 Nov 2014 (Local Time) from KHZY Reporting Station
Light Snow Light Snow  
Wind Chill: 21°   Ceiling: 3500
Heat Index: 31°   Visibility: 8mi
Dew Point: 23°   Wind: 14mph
Humidity: 72%   Direction: 320°NW
Pressure: 30.18"   Gusts: NA
Location:  41.61°N, 80.57°W
Report Text: KHZY 280134Z AUTO 32012KT 8SM -SN SCT026 OVC035 M01/M05 A3018 RMK AO2 SNB0058 P0000 T10061050
Loading
Personal Weather Stations






























Interactive Weather Map New forecast layout! Learn more

10-Day Weather Forecast

Advertisements
Track Severe Weather on mobile